createdAt,value
2022-08-03T00:00:37.122Z,0.00
2022-08-03T00:01:37.054Z,0.00
2022-08-03T00:02:37.069Z,0.00
2022-08-03T00:03:36.936Z,0.00
2022-08-03T00:04:36.943Z,0.00
2022-08-03T00:05:36.877Z,0.00
2022-08-03T00:06:37.364Z,0.00
2022-08-03T00:07:36.708Z,0.00
2022-08-03T00:08:37.649Z,0.00
2022-08-03T00:09:36.598Z,0.00
2022-08-03T00:10:36.575Z,0.00
2022-08-03T00:11:36.478Z,0.00
2022-08-03T00:12:36.411Z,0.00
2022-08-03T00:13:36.347Z,0.00
2022-08-03T00:14:36.295Z,0.00
2022-08-03T00:15:36.238Z,0.00
2022-08-03T00:16:36.185Z,0.00
2022-08-03T00:17:52.472Z,0.00
2022-08-03T00:18:36.057Z,0.00
2022-08-03T00:19:36.004Z,0.00
2022-08-03T00:20:36.773Z,0.00
2022-08-03T00:21:35.883Z,0.00
2022-08-03T00:22:35.829Z,0.00
2022-08-03T00:23:51.468Z,0.00
2022-08-03T00:24:35.708Z,0.00
2022-08-03T00:25:35.647Z,0.00
2022-08-03T00:26:35.587Z,0.00
2022-08-03T00:27:35.528Z,0.00
2022-08-03T00:28:35.472Z,0.00
2022-08-03T00:29:57.348Z,0.00
2022-08-03T00:30:35.353Z,0.00
2022-08-03T00:31:52.192Z,0.00
2022-08-03T00:32:35.258Z,0.00
2022-08-03T00:33:59.948Z,0.00
2022-08-03T00:34:57.115Z,0.00
2022-08-03T00:35:37.044Z,0.00
2022-08-03T00:36:35.005Z,0.00
2022-08-03T00:37:40.998Z,0.00
2022-08-03T00:38:34.929Z,0.00
2022-08-03T00:39:34.828Z,0.00
2022-08-03T00:40:34.804Z,0.00
2022-08-03T00:41:34.731Z,0.00
2022-08-03T00:42:34.653Z,0.00
2022-08-03T00:43:34.593Z,0.00
2022-08-03T00:44:34.530Z,0.00
2022-08-03T00:45:34.474Z,0.00
2022-08-03T00:46:34.420Z,0.00
2022-08-03T00:47:34.362Z,0.00
2022-08-03T00:48:34.299Z,0.00
2022-08-03T00:49:34.280Z,0.00
2022-08-03T00:50:34.176Z,0.00
2022-08-03T00:51:34.126Z,0.00
2022-08-03T00:52:34.059Z,0.00
2022-08-03T00:53:34.002Z,0.00
2022-08-03T00:54:33.941Z,0.00
2022-08-03T00:55:33.890Z,0.00
2022-08-03T00:56:33.835Z,0.00
2022-08-03T00:57:33.765Z,0.00
2022-08-03T00:58:33.715Z,0.00
2022-08-03T00:59:33.657Z,0.00
2022-08-03T01:00:33.614Z,0.00
2022-08-03T01:01:33.590Z,0.00
2022-08-03T01:02:33.472Z,0.00
2022-08-03T01:03:33.411Z,0.00
2022-08-03T01:04:33.358Z,0.00
2022-08-03T01:05:33.299Z,0.00
2022-08-03T01:06:33.236Z,0.00
2022-08-03T01:07:33.185Z,0.00
2022-08-03T01:08:33.134Z,0.00
2022-08-03T01:09:33.081Z,0.00
2022-08-03T01:10:33.000Z,0.00
2022-08-03T01:11:32.971Z,0.00
2022-08-03T01:12:32.884Z,0.00
2022-08-03T01:14:00.314Z,0.00
2022-08-03T01:14:32.773Z,0.00
2022-08-03T01:15:32.712Z,0.00
2022-08-03T01:16:36.826Z,0.00
2022-08-03T01:17:32.616Z,0.00
2022-08-03T01:18:32.535Z,0.00
2022-08-03T01:19:32.470Z,0.00
2022-08-03T01:20:32.419Z,0.00
2022-08-03T01:21:32.381Z,0.00
2022-08-03T01:22:32.310Z,0.00
2022-08-03T01:23:32.243Z,0.00
2022-08-03T01:24:32.191Z,0.00
2022-08-03T01:25:32.123Z,0.00
2022-08-03T01:26:32.064Z,0.00
2022-08-03T01:27:32.004Z,0.00
2022-08-03T01:28:31.962Z,0.00
2022-08-03T01:29:31.886Z,0.00
2022-08-03T01:30:31.834Z,0.00
2022-08-03T01:31:31.781Z,0.00
2022-08-03T01:32:59.513Z,0.00
2022-08-03T01:33:31.649Z,0.00
2022-08-03T01:34:31.607Z,0.00
2022-08-03T01:35:31.532Z,0.00
2022-08-03T01:36:31.484Z,0.00
2022-08-03T01:37:31.419Z,0.00
2022-08-03T01:38:31.364Z,0.00
2022-08-03T01:39:31.391Z,0.00
2022-08-03T01:40:31.239Z,0.00
2022-08-03T01:41:31.176Z,0.00
2022-08-03T01:42:31.122Z,0.00
2022-08-03T01:44:26.732Z,0.00
2022-08-03T01:44:31.149Z,0.00
2022-08-03T01:45:33.977Z,0.00
2022-08-03T01:46:30.891Z,0.00
2022-08-03T01:47:30.830Z,0.00
2022-08-03T01:48:30.768Z,0.00
2022-08-03T01:49:30.787Z,0.00
2022-08-03T01:50:30.660Z,0.00
2022-08-03T01:52:03.429Z,0.00
2022-08-03T01:52:30.556Z,0.00
2022-08-03T01:53:30.488Z,0.00
2022-08-03T01:54:30.430Z,0.00
2022-08-03T01:55:30.356Z,0.00
2022-08-03T01:56:30.310Z,0.00
2022-08-03T01:57:30.234Z,0.00
2022-08-03T01:58:30.187Z,0.00
2022-08-03T01:59:30.121Z,0.00
2022-08-03T02:00:30.064Z,0.00
2022-08-03T02:02:29.868Z,0.00
2022-08-03T02:02:32.794Z,0.00
2022-08-03T02:03:29.889Z,0.00
2022-08-03T02:04:29.835Z,0.00
2022-08-03T02:05:29.775Z,0.00
2022-08-03T02:07:00.556Z,0.00
2022-08-03T02:07:29.651Z,0.00
2022-08-03T02:08:29.591Z,0.00
2022-08-03T02:09:29.534Z,0.00
2022-08-03T02:10:35.158Z,0.00
2022-08-03T02:11:29.419Z,0.00
2022-08-03T02:12:29.354Z,0.00
2022-08-03T02:13:29.297Z,0.00
2022-08-03T02:14:29.237Z,0.00
2022-08-03T02:15:29.189Z,0.00
2022-08-03T02:16:29.130Z,0.00
2022-08-03T02:17:39.546Z,0.00
2022-08-03T02:18:29.037Z,0.00
2022-08-03T02:19:33.771Z,0.00
2022-08-03T02:20:28.894Z,0.00
2022-08-03T02:21:57.217Z,0.00
2022-08-03T02:22:28.778Z,0.00
2022-08-03T02:23:28.733Z,0.00
2022-08-03T02:24:28.654Z,0.00
2022-08-03T02:25:28.620Z,0.00
2022-08-03T02:26:28.555Z,0.00
2022-08-03T02:27:28.480Z,0.00
2022-08-03T02:28:28.425Z,0.00
2022-08-03T02:29:40.264Z,0.00
2022-08-03T02:30:28.300Z,0.00
2022-08-03T02:31:28.236Z,0.00
2022-08-03T02:32:28.192Z,0.00
2022-08-03T02:33:28.138Z,0.00
2022-08-03T02:34:28.073Z,0.00
2022-08-03T02:35:28.004Z,0.00
2022-08-03T02:36:27.953Z,0.00
2022-08-03T02:37:27.887Z,0.00
2022-08-03T02:38:27.828Z,0.00
2022-08-03T02:39:27.770Z,0.00
2022-08-03T02:40:27.734Z,0.00
2022-08-03T02:41:27.656Z,0.00
2022-08-03T02:42:27.600Z,0.00
2022-08-03T02:43:27.529Z,0.00
2022-08-03T02:44:27.478Z,0.00
2022-08-03T02:45:27.415Z,0.00
2022-08-03T02:46:27.357Z,0.00
2022-08-03T02:47:27.299Z,0.00
2022-08-03T02:48:27.271Z,0.00
2022-08-03T02:49:41.420Z,0.00
2022-08-03T02:50:27.120Z,0.00
2022-08-03T02:51:27.063Z,0.00
2022-08-03T02:52:27.012Z,0.00
2022-08-03T02:53:26.954Z,0.00
2022-08-03T02:54:26.892Z,0.00
2022-08-03T02:55:26.826Z,0.00
2022-08-03T02:56:26.795Z,0.00
2022-08-03T02:57:26.723Z,0.00
2022-08-03T02:58:26.664Z,0.00
2022-08-03T02:59:26.596Z,0.00
2022-08-03T03:00:28.004Z,0.00
2022-08-03T03:01:26.537Z,0.00
2022-08-03T03:02:26.425Z,4.00
2022-08-03T03:03:27.039Z,0.00
2022-08-03T03:04:29.338Z,0.00
2022-08-03T03:05:55.306Z,4.00
2022-08-03T03:06:26.196Z,4.00
2022-08-03T03:07:26.125Z,0.00
2022-08-03T03:08:28.642Z,4.00
2022-08-03T03:09:26.024Z,4.00
2022-08-03T03:10:26.015Z,4.00
2022-08-03T03:11:25.930Z,4.00
2022-08-03T03:12:25.902Z,4.00
2022-08-03T03:13:25.793Z,8.00
2022-08-03T03:14:33.181Z,4.00
2022-08-03T03:15:25.691Z,8.00
2022-08-03T03:16:25.622Z,8.00
2022-08-03T03:17:25.555Z,8.00
2022-08-03T03:18:25.482Z,12.00
2022-08-03T03:19:25.414Z,12.00
2022-08-03T03:20:29.871Z,16.00
2022-08-03T03:21:25.335Z,16.00
2022-08-03T03:22:25.248Z,20.00
2022-08-03T03:23:25.193Z,20.00
2022-08-03T03:24:25.155Z,20.00
2022-08-03T03:25:25.101Z,24.00
2022-08-03T03:26:25.077Z,28.00
2022-08-03T03:27:24.951Z,28.00
2022-08-03T03:28:24.886Z,28.00
2022-08-03T03:29:24.831Z,32.00
2022-08-03T03:30:24.878Z,32.00
2022-08-03T03:31:24.728Z,40.00
2022-08-03T03:32:24.659Z,40.00
2022-08-03T03:33:24.618Z,44.00
2022-08-03T03:34:24.658Z,44.00
2022-08-03T03:35:24.561Z,48.00
2022-08-03T03:36:24.439Z,52.00
2022-08-03T03:37:24.407Z,52.00
2022-08-03T03:38:24.304Z,60.00
2022-08-03T03:39:24.283Z,64.00
2022-08-03T03:40:24.224Z,68.00
2022-08-03T03:41:24.190Z,68.00
2022-08-03T03:42:24.237Z,72.00
2022-08-03T03:43:24.059Z,76.00
2022-08-03T03:44:23.984Z,80.00
2022-08-03T03:45:23.891Z,88.00
2022-08-03T03:46:23.829Z,92.00
2022-08-03T03:47:32.775Z,96.00
2022-08-03T03:48:23.747Z,104.00
2022-08-03T03:49:23.724Z,108.00
2022-08-03T03:50:23.605Z,116.00
2022-08-03T03:51:23.545Z,124.00
2022-08-03T03:52:23.515Z,132.00
2022-08-03T03:53:23.416Z,136.00
2022-08-03T03:54:25.470Z,144.00
2022-08-03T03:55:23.332Z,152.00
2022-08-03T03:56:23.237Z,160.00
2022-08-03T03:57:23.213Z,168.00
2022-08-03T03:58:23.141Z,176.00
2022-08-03T03:59:23.061Z,184.00
2022-08-03T04:00:23.001Z,196.00
2022-08-03T04:01:23.017Z,200.00
2022-08-03T04:02:22.882Z,208.00
2022-08-03T04:03:22.843Z,220.00
2022-08-03T04:04:22.770Z,228.00
2022-08-03T04:05:22.775Z,240.00
2022-08-03T04:06:22.673Z,252.00
2022-08-03T04:07:22.587Z,264.00
2022-08-03T04:08:22.528Z,276.00
2022-08-03T04:09:22.471Z,292.00
2022-08-03T04:10:22.402Z,308.00
2022-08-03T04:11:29.097Z,320.00
2022-08-03T04:12:22.285Z,332.00
2022-08-03T04:13:22.232Z,344.00
2022-08-03T04:14:22.173Z,352.00
2022-08-03T04:15:22.114Z,356.00
2022-08-03T04:16:22.049Z,360.00
2022-08-03T04:17:21.989Z,364.00
2022-08-03T04:18:21.958Z,360.00
2022-08-03T04:19:23.447Z,360.00
2022-08-03T04:20:21.812Z,356.00
2022-08-03T04:21:21.756Z,352.00
2022-08-03T04:22:21.708Z,352.00
2022-08-03T04:23:21.646Z,352.00
2022-08-03T04:24:21.577Z,352.00
2022-08-03T04:25:21.583Z,352.00
2022-08-03T04:26:21.466Z,356.00
2022-08-03T04:27:21.407Z,360.00
2022-08-03T04:28:31.020Z,364.00
2022-08-03T04:29:21.296Z,368.00
2022-08-03T04:30:21.228Z,372.00
2022-08-03T04:31:21.167Z,376.00
2022-08-03T04:32:21.131Z,380.00
2022-08-03T04:33:21.050Z,388.00
2022-08-03T04:34:20.985Z,392.00
2022-08-03T04:35:20.938Z,396.00
2022-08-03T04:36:20.869Z,400.00
2022-08-03T04:37:20.818Z,408.00
2022-08-03T04:38:20.767Z,412.00
2022-08-03T04:39:20.694Z,416.00
2022-08-03T04:40:22.790Z,424.00
2022-08-03T04:41:20.574Z,428.00
2022-08-03T04:42:20.830Z,428.00
2022-08-03T04:43:20.475Z,432.00
2022-08-03T04:44:20.405Z,432.00
2022-08-03T04:45:20.335Z,436.00
2022-08-03T04:46:20.285Z,436.00
2022-08-03T04:47:20.242Z,436.00
2022-08-03T04:48:20.160Z,436.00
2022-08-03T04:49:20.147Z,444.00
2022-08-03T04:50:21.657Z,448.00
2022-08-03T04:51:20.041Z,456.00
2022-08-03T04:52:19.994Z,464.00
2022-08-03T04:53:19.947Z,476.00
2022-08-03T04:54:20.018Z,480.00
2022-08-03T04:55:19.773Z,488.00
2022-08-03T04:56:19.700Z,492.00
2022-08-03T04:57:22.998Z,496.00
2022-08-03T04:58:19.575Z,500.00
2022-08-03T04:59:19.554Z,504.00
2022-08-03T05:00:19.457Z,512.00
2022-08-03T05:01:19.417Z,516.00
2022-08-03T05:02:19.376Z,524.00
2022-08-03T05:03:20.468Z,532.00
2022-08-03T05:04:19.213Z,540.00
2022-08-03T05:05:19.162Z,548.00
2022-08-03T05:06:19.093Z,552.00
2022-08-03T05:07:24.081Z,560.00
2022-08-03T05:08:20.531Z,568.00
2022-08-03T05:09:45.798Z,580.00
2022-08-03T05:10:18.863Z,596.00
2022-08-03T05:11:18.826Z,608.00
2022-08-03T05:12:18.764Z,628.00
2022-08-03T05:13:18.689Z,656.00
2022-08-03T05:14:18.662Z,696.00
2022-08-03T05:15:18.565Z,748.00
2022-08-03T05:16:18.508Z,812.00
2022-08-03T05:17:18.459Z,912.00
2022-08-03T05:18:18.391Z,1052.00
2022-08-03T05:19:18.340Z,1256.00
2022-08-03T05:20:18.782Z,1528.00
2022-08-03T05:21:18.224Z,1856.00
2022-08-03T05:22:18.308Z,2412.00
2022-08-03T05:23:18.129Z,3016.00
2022-08-03T05:24:18.045Z,3460.00
2022-08-03T05:25:20.638Z,3756.00
2022-08-03T05:26:17.920Z,3952.00
2022-08-03T05:27:17.860Z,4128.00
2022-08-03T05:28:17.812Z,4272.00
2022-08-03T05:29:17.744Z,4348.00
2022-08-03T05:30:31.132Z,4384.00
2022-08-03T05:31:17.627Z,4436.00
2022-08-03T05:32:17.897Z,4452.00
2022-08-03T05:33:17.513Z,4500.00
2022-08-03T05:34:17.461Z,4544.00
2022-08-03T05:36:02.211Z,4584.00
2022-08-03T05:36:17.390Z,4636.00
2022-08-03T05:37:17.294Z,4676.00
2022-08-03T05:38:24.068Z,4744.00
2022-08-03T05:39:17.168Z,4788.00
2022-08-03T05:40:17.118Z,4816.00
2022-08-03T05:41:21.290Z,4852.00
2022-08-03T05:42:17.312Z,4896.00
2022-08-03T05:43:16.938Z,4956.00
2022-08-03T05:44:16.878Z,5008.00
2022-08-03T05:45:16.825Z,5036.00
2022-08-03T05:46:16.783Z,5100.00
2022-08-03T05:47:16.756Z,5144.00
2022-08-03T05:48:16.682Z,5188.00
2022-08-03T05:49:16.683Z,5272.00
2022-08-03T05:50:16.535Z,5336.00
2022-08-03T05:51:16.478Z,5360.00
2022-08-03T05:52:18.362Z,5432.00
2022-08-03T05:53:16.426Z,5500.00
2022-08-03T05:54:16.309Z,5580.00
2022-08-03T05:55:16.253Z,5636.00
2022-08-03T05:56:16.926Z,5664.00
2022-08-03T05:57:16.163Z,5736.00
2022-08-03T05:58:16.091Z,5752.00
2022-08-03T05:59:36.994Z,5800.00
2022-08-03T06:00:15.983Z,5828.00
2022-08-03T06:01:16.113Z,5844.00
2022-08-03T06:02:16.106Z,5872.00
2022-08-03T06:03:15.802Z,5940.00
2022-08-03T06:04:15.749Z,5956.00
2022-08-03T06:05:15.696Z,5996.00
2022-08-03T06:06:15.638Z,6044.00
2022-08-03T06:07:15.599Z,6036.00
2022-08-03T06:08:15.606Z,6048.00
2022-08-03T06:09:15.502Z,6128.00
2022-08-03T06:10:36.726Z,6144.00
2022-08-03T06:11:15.366Z,6172.00
2022-08-03T06:12:15.793Z,6220.00
2022-08-03T06:13:15.291Z,6252.00
2022-08-03T06:14:15.201Z,6232.00
2022-08-03T06:15:15.153Z,6276.00
2022-08-03T06:16:15.097Z,6300.00
2022-08-03T06:17:15.031Z,6336.00
2022-08-03T06:18:14.978Z,6356.00
2022-08-03T06:19:14.941Z,6372.00
2022-08-03T06:20:14.871Z,6392.00
2022-08-03T06:21:16.280Z,6392.00
2022-08-03T06:22:15.110Z,6412.00
2022-08-03T06:23:16.237Z,6448.00
2022-08-03T06:24:14.653Z,6452.00
2022-08-03T06:25:14.632Z,6440.00
2022-08-03T06:26:14.548Z,6428.00
2022-08-03T06:27:14.514Z,6456.00
2022-08-03T06:28:42.602Z,6468.00
2022-08-03T06:29:14.393Z,6484.00
2022-08-03T06:30:18.065Z,6496.00
2022-08-03T06:31:14.335Z,6544.00
2022-08-03T06:32:14.525Z,6528.00
2022-08-03T06:33:14.166Z,6552.00
2022-08-03T06:34:33.190Z,6604.00
2022-08-03T06:35:14.056Z,6620.00
2022-08-03T06:36:14.000Z,6636.00
2022-08-03T06:37:13.951Z,6640.00
2022-08-03T06:38:13.914Z,6668.00
2022-08-03T06:39:13.893Z,6700.00
2022-08-03T06:40:14.104Z,6732.00
2022-08-03T06:41:13.738Z,6740.00
2022-08-03T06:42:13.697Z,6792.00
2022-08-03T06:43:13.640Z,6812.00
2022-08-03T06:44:13.589Z,6860.00
2022-08-03T06:45:13.525Z,6884.00
2022-08-03T06:46:13.467Z,6884.00
2022-08-03T06:47:13.419Z,6888.00
2022-08-03T06:48:13.380Z,6928.00
2022-08-03T06:49:13.371Z,6948.00
2022-08-03T06:50:17.812Z,6980.00
2022-08-03T06:51:13.206Z,6992.00
2022-08-03T06:52:13.222Z,7028.00
2022-08-03T06:53:19.719Z,7036.00
2022-08-03T06:54:14.017Z,7032.00
2022-08-03T06:55:12.999Z,7072.00
2022-08-03T06:56:12.944Z,7088.00
2022-08-03T06:57:12.886Z,7132.00
2022-08-03T06:58:12.842Z,7152.00
2022-08-03T07:00:06.603Z,7160.00
2022-08-03T07:00:12.973Z,7176.00
2022-08-03T07:01:12.741Z,7180.00
2022-08-03T07:02:12.628Z,6976.00
2022-08-03T07:03:12.569Z,7164.00
2022-08-03T07:04:12.523Z,7140.00
2022-08-03T07:05:12.462Z,7216.00
2022-08-03T07:06:12.413Z,7192.00
2022-08-03T07:07:12.384Z,7220.00
2022-08-03T07:08:12.403Z,7168.00
2022-08-03T07:09:12.277Z,7240.00
2022-08-03T07:10:12.200Z,7264.00
2022-08-03T07:11:12.157Z,7280.00
2022-08-03T07:12:12.103Z,7308.00
2022-08-03T07:13:12.043Z,7312.00
2022-08-03T07:14:11.991Z,7360.00
2022-08-03T07:15:20.621Z,7388.00
2022-08-03T07:16:11.888Z,7360.00
2022-08-03T07:17:12.124Z,7428.00
2022-08-03T07:18:11.793Z,7452.00
2022-08-03T07:19:11.746Z,7340.00
2022-08-03T07:20:11.678Z,7456.00
2022-08-03T07:21:11.637Z,7456.00
2022-08-03T07:22:11.691Z,7564.00
2022-08-03T07:23:18.867Z,7544.00
2022-08-03T07:24:11.470Z,7580.00
2022-08-03T07:25:11.411Z,7568.00
2022-08-03T07:26:11.373Z,7572.00
2022-08-03T07:27:11.335Z,7580.00
2022-08-03T07:28:11.257Z,7616.00
2022-08-03T07:29:14.758Z,7636.00
2022-08-03T07:30:11.151Z,7640.00
2022-08-03T07:31:11.120Z,7672.00
2022-08-03T07:32:11.056Z,7688.00
2022-08-03T07:33:11.008Z,7660.00
2022-08-03T07:34:10.943Z,7696.00
2022-08-03T07:35:24.175Z,7688.00
2022-08-03T07:36:10.990Z,7696.00
2022-08-03T07:37:11.300Z,7720.00
2022-08-03T07:38:11.002Z,7728.00
2022-08-03T07:39:17.537Z,7740.00
2022-08-03T07:40:11.426Z,7756.00
2022-08-03T07:41:10.687Z,7740.00
2022-08-03T07:42:10.615Z,7712.00
2022-08-03T07:43:10.493Z,7792.00
2022-08-03T07:44:10.421Z,7756.00
2022-08-03T07:45:10.509Z,7776.00
2022-08-03T07:46:10.394Z,7788.00
2022-08-03T07:47:10.319Z,7764.00
2022-08-03T07:48:12.551Z,7824.00
2022-08-03T07:49:10.399Z,7812.00
2022-08-03T07:50:10.114Z,7796.00
2022-08-03T07:51:10.103Z,7800.00
2022-08-03T07:52:10.112Z,7788.00
2022-08-03T07:53:10.476Z,7812.00
2022-08-03T07:54:09.962Z,7840.00
2022-08-03T07:55:09.951Z,7832.00
2022-08-03T07:56:11.561Z,7860.00
2022-08-03T07:57:09.796Z,7840.00
2022-08-03T07:58:09.736Z,7832.00
2022-08-03T07:59:09.699Z,7868.00
2022-08-03T08:00:09.592Z,7880.00
2022-08-03T08:01:09.710Z,7880.00
2022-08-03T08:02:10.939Z,7848.00
2022-08-03T08:03:09.463Z,7832.00
2022-08-03T08:04:10.142Z,7820.00
2022-08-03T08:05:09.673Z,7824.00
2022-08-03T08:06:11.060Z,7788.00
2022-08-03T08:07:09.309Z,7824.00
2022-08-03T08:08:09.236Z,7816.00
2022-08-03T08:09:09.147Z,7764.00
2022-08-03T08:10:09.102Z,7872.00
2022-08-03T08:11:09.144Z,7840.00
2022-08-03T08:12:15.188Z,7852.00
2022-08-03T08:13:09.747Z,7856.00
2022-08-03T08:14:10.160Z,7808.00
2022-08-03T08:15:09.244Z,7764.00
2022-08-03T08:16:08.861Z,7652.00
2022-08-03T08:17:08.737Z,7516.00
2022-08-03T08:18:08.754Z,7656.00
2022-08-03T08:19:08.795Z,7636.00
2022-08-03T08:20:08.805Z,7552.00
2022-08-03T08:21:08.718Z,7532.00
2022-08-03T08:22:08.509Z,7572.00
2022-08-03T08:23:16.604Z,7560.00
2022-08-03T08:24:13.405Z,7572.00
2022-08-03T08:25:08.393Z,7624.00
2022-08-03T08:26:08.308Z,7636.00
2022-08-03T08:27:08.227Z,7424.00
2022-08-03T08:28:29.875Z,7376.00
2022-08-03T08:29:09.491Z,7068.00
2022-08-03T08:30:11.454Z,7212.00
2022-08-03T08:31:08.051Z,7236.00
2022-08-03T08:32:08.649Z,7416.00
2022-08-03T08:33:22.710Z,7480.00
2022-08-03T08:34:11.823Z,7488.00
2022-08-03T08:35:07.841Z,7484.00
2022-08-03T08:36:10.896Z,7436.00
2022-08-03T08:37:07.759Z,7448.00
2022-08-03T08:38:07.877Z,7488.00
2022-08-03T08:39:07.656Z,7508.00
2022-08-03T08:40:07.579Z,7500.00
2022-08-03T08:41:07.683Z,7500.00
2022-08-03T08:42:07.493Z,7476.00
2022-08-03T08:43:07.717Z,7448.00
2022-08-03T08:44:07.475Z,7416.00
2022-08-03T08:45:08.032Z,7380.00
2022-08-03T08:46:07.300Z,7316.00
2022-08-03T08:47:07.384Z,7396.00
2022-08-03T08:48:08.483Z,7320.00
2022-08-03T08:49:07.143Z,7260.00
2022-08-03T08:50:10.184Z,7252.00
2022-08-03T08:51:07.109Z,7184.00
2022-08-03T08:52:24.790Z,7216.00
2022-08-03T08:53:06.915Z,7172.00
2022-08-03T08:54:06.855Z,7124.00
2022-08-03T08:55:06.933Z,7048.00
2022-08-03T08:56:07.971Z,7072.00
2022-08-03T08:57:26.579Z,7028.00
2022-08-03T08:58:08.797Z,7000.00
2022-08-03T08:59:06.659Z,6988.00
2022-08-03T09:00:06.675Z,6980.00
2022-08-03T09:01:06.731Z,6984.00
2022-08-03T09:02:06.467Z,6972.00
2022-08-03T09:03:06.575Z,6904.00
2022-08-03T09:04:06.401Z,6852.00
2022-08-03T09:05:07.633Z,6816.00
2022-08-03T09:06:06.319Z,6832.00
2022-08-03T09:07:19.675Z,6788.00
2022-08-03T09:08:07.250Z,6728.00
2022-08-03T09:09:06.539Z,6684.00
2022-08-03T09:10:12.712Z,6712.00
2022-08-03T09:11:06.113Z,6704.00
2022-08-03T09:12:36.482Z,6568.00
2022-08-03T09:13:07.942Z,6568.00
2022-08-03T09:14:05.930Z,6420.00
2022-08-03T09:15:16.895Z,6372.00
2022-08-03T09:16:06.306Z,6620.00
2022-08-03T09:17:05.864Z,6344.00
2022-08-03T09:18:06.663Z,6288.00
2022-08-03T09:19:06.282Z,6244.00
2022-08-03T09:20:05.661Z,6172.00
2022-08-03T09:21:24.206Z,6140.00
2022-08-03T09:22:05.559Z,6120.00
2022-08-03T09:23:18.060Z,6060.00
2022-08-03T09:24:08.433Z,6016.00
2022-08-03T09:25:25.108Z,5996.00
2022-08-03T09:26:05.307Z,5996.00
2022-08-03T09:27:05.313Z,5992.00
2022-08-03T09:28:05.410Z,5936.00
2022-08-03T09:29:09.675Z,5900.00
2022-08-03T09:30:05.848Z,5864.00
2022-08-03T09:31:05.334Z,5848.00
2022-08-03T09:32:07.867Z,5764.00
2022-08-03T09:33:05.029Z,5736.00
2022-08-03T09:34:05.033Z,5708.00
2022-08-03T09:35:04.903Z,5564.00
2022-08-03T09:36:04.836Z,5564.00
2022-08-03T09:37:04.857Z,5640.00
2022-08-03T09:38:04.864Z,5540.00
2022-08-03T09:39:04.729Z,5608.00
2022-08-03T09:40:04.644Z,5504.00
2022-08-03T09:41:04.671Z,5564.00
2022-08-03T09:42:07.218Z,5612.00
2022-08-03T09:43:04.570Z,5592.00
2022-08-03T09:44:04.462Z,5640.00
2022-08-03T09:45:04.474Z,6268.00
2022-08-03T09:46:04.485Z,5468.00
2022-08-03T09:47:04.308Z,5448.00
2022-08-03T09:48:04.684Z,5456.00
2022-08-03T09:49:04.426Z,5400.00
2022-08-03T09:50:04.219Z,5372.00
2022-08-03T09:51:13.002Z,5332.00
2022-08-03T09:52:38.363Z,5288.00
2022-08-03T09:53:04.444Z,5240.00
2022-08-03T09:54:07.600Z,5208.00
2022-08-03T09:55:03.950Z,5252.00
2022-08-03T09:56:33.688Z,5308.00
2022-08-03T09:57:03.835Z,5284.00
2022-08-03T09:58:03.869Z,5308.00
2022-08-03T09:59:04.028Z,5204.00
2022-08-03T10:00:08.209Z,5324.00
2022-08-03T10:01:03.743Z,5280.00
2022-08-03T10:02:03.660Z,5092.00
2022-08-03T10:03:03.589Z,4620.00
2022-08-03T10:04:05.163Z,4904.00
2022-08-03T10:05:03.884Z,4664.00
2022-08-03T10:06:03.682Z,4640.00
2022-08-03T10:07:03.394Z,4700.00
2022-08-03T10:08:03.317Z,4976.00
2022-08-03T10:09:03.301Z,4992.00
2022-08-03T10:10:29.913Z,5064.00
2022-08-03T10:11:03.201Z,4992.00
2022-08-03T10:12:03.105Z,4936.00
2022-08-03T10:13:03.112Z,4940.00
2022-08-03T10:14:03.007Z,4920.00
2022-08-03T10:15:02.947Z,4860.00
2022-08-03T10:16:22.720Z,4828.00
2022-08-03T10:17:02.931Z,4752.00
2022-08-03T10:18:02.861Z,4644.00
2022-08-03T10:19:02.845Z,4768.00
2022-08-03T10:20:02.752Z,4544.00
2022-08-03T10:21:02.678Z,4424.00
2022-08-03T10:22:02.636Z,4704.00
2022-08-03T10:23:02.667Z,4300.00
2022-08-03T10:24:02.745Z,4188.00
2022-08-03T10:25:02.749Z,4080.00
2022-08-03T10:26:02.458Z,4024.00
2022-08-03T10:27:02.404Z,3988.00
2022-08-03T10:28:02.411Z,4144.00
2022-08-03T10:29:02.314Z,3944.00
2022-08-03T10:30:02.311Z,3768.00
2022-08-03T10:31:02.228Z,3912.00
2022-08-03T10:32:02.529Z,3640.00
2022-08-03T10:33:02.127Z,3548.00
2022-08-03T10:34:02.031Z,3532.00
2022-08-03T10:35:01.983Z,3464.00
2022-08-03T10:36:01.923Z,3332.00
2022-08-03T10:37:01.892Z,3304.00
2022-08-03T10:38:01.837Z,3540.00
2022-08-03T10:39:01.774Z,3268.00
2022-08-03T10:40:01.735Z,3196.00
2022-08-03T10:41:01.689Z,2980.00
2022-08-03T10:42:02.475Z,3048.00
2022-08-03T10:43:01.573Z,3072.00
2022-08-03T10:44:01.526Z,3044.00
2022-08-03T10:45:01.491Z,3100.00
2022-08-03T10:46:01.481Z,3084.00
2022-08-03T10:47:01.434Z,3112.00
2022-08-03T10:48:01.368Z,3084.00
2022-08-03T10:49:01.390Z,3036.00
2022-08-03T10:50:01.231Z,3016.00
2022-08-03T10:51:01.184Z,2976.00
2022-08-03T10:52:01.128Z,2960.00
2022-08-03T10:53:01.978Z,2900.00
2022-08-03T10:54:01.691Z,2756.00
2022-08-03T10:55:00.986Z,2940.00
2022-08-03T10:56:00.937Z,2900.00
2022-08-03T10:57:12.402Z,2908.00
2022-08-03T10:58:00.829Z,2856.00
2022-08-03T10:59:00.776Z,2800.00
2022-08-03T11:00:00.743Z,3184.00
2022-08-03T11:01:00.825Z,2696.00
2022-08-03T11:02:01.331Z,2636.00
2022-08-03T11:03:00.591Z,2572.00
2022-08-03T11:04:00.532Z,2560.00
2022-08-03T11:05:00.483Z,2612.00
2022-08-03T11:06:00.429Z,2556.00
2022-08-03T11:07:00.386Z,2568.00
2022-08-03T11:08:00.331Z,2580.00
2022-08-03T11:09:00.282Z,2576.00
2022-08-03T11:10:00.231Z,2584.00
2022-08-03T11:11:00.179Z,2620.00
2022-08-03T11:12:00.135Z,2884.00
2022-08-03T11:13:00.083Z,2648.00
2022-08-03T11:14:00.032Z,2624.00
2022-08-03T11:14:59.986Z,2588.00
2022-08-03T11:16:03.007Z,2628.00
2022-08-03T11:17:00.491Z,2588.00
2022-08-03T11:17:59.875Z,2612.00
2022-08-03T11:19:00.008Z,2640.00
2022-08-03T11:20:00.113Z,2636.00
2022-08-03T11:20:59.899Z,2680.00
2022-08-03T11:21:59.805Z,2776.00
2022-08-03T11:23:00.526Z,2756.00
2022-08-03T11:24:04.713Z,2672.00
2022-08-03T11:24:59.507Z,2640.00
2022-08-03T11:25:59.484Z,2536.00
2022-08-03T11:27:04.270Z,2188.00
2022-08-03T11:27:59.358Z,2424.00
2022-08-03T11:28:59.642Z,2416.00
2022-08-03T11:29:59.269Z,2056.00
2022-08-03T11:30:59.245Z,2312.00
2022-08-03T11:31:59.215Z,2212.00
2022-08-03T11:32:59.153Z,1892.00
2022-08-03T11:33:59.050Z,2008.00
2022-08-03T11:34:59.026Z,1916.00
2022-08-03T11:35:59.321Z,1700.00
2022-08-03T11:36:58.937Z,1448.00
2022-08-03T11:38:03.311Z,1276.00
2022-08-03T11:39:00.519Z,1188.00
2022-08-03T11:39:58.783Z,1028.00
2022-08-03T11:40:58.756Z,932.00
2022-08-03T11:41:59.414Z,904.00
2022-08-03T11:42:58.683Z,888.00
2022-08-03T11:43:58.570Z,868.00
2022-08-03T11:44:58.829Z,868.00
2022-08-03T11:45:58.483Z,864.00
2022-08-03T11:46:59.544Z,864.00
2022-08-03T11:47:58.399Z,856.00
2022-08-03T11:48:58.351Z,852.00
2022-08-03T11:49:58.267Z,844.00
2022-08-03T11:50:58.228Z,840.00
2022-08-03T11:51:58.145Z,816.00
2022-08-03T11:52:58.117Z,808.00
2022-08-03T11:53:58.057Z,812.00
2022-08-03T11:54:58.024Z,836.00
2022-08-03T11:55:58.029Z,848.00
2022-08-03T11:56:57.933Z,848.00
2022-08-03T11:59:01.902Z,852.00
2022-08-03T11:59:20.293Z,852.00
2022-08-03T11:59:57.769Z,840.00
2022-08-03T12:00:57.861Z,824.00
2022-08-03T12:01:58.067Z,820.00
2022-08-03T12:02:57.918Z,832.00
2022-08-03T12:03:58.121Z,836.00
2022-08-03T12:04:57.812Z,848.00
2022-08-03T12:05:57.478Z,844.00
2022-08-03T12:06:57.413Z,840.00
2022-08-03T12:08:04.421Z,836.00
2022-08-03T12:08:57.294Z,836.00
2022-08-03T12:09:57.225Z,832.00
2022-08-03T12:10:59.974Z,844.00
2022-08-03T12:11:59.941Z,844.00
2022-08-03T12:12:57.236Z,844.00
2022-08-03T12:14:48.748Z,844.00
2022-08-03T12:14:57.020Z,844.00
2022-08-03T12:15:56.929Z,836.00
2022-08-03T12:16:56.838Z,828.00
2022-08-03T12:17:57.980Z,828.00
2022-08-03T12:18:56.777Z,824.00
2022-08-03T12:19:56.709Z,820.00
2022-08-03T12:20:57.298Z,804.00
2022-08-03T12:21:57.255Z,796.00
2022-08-03T12:22:56.566Z,808.00
2022-08-03T12:23:56.500Z,804.00
2022-08-03T12:24:56.437Z,824.00
2022-08-03T12:25:56.368Z,836.00
2022-08-03T12:26:58.351Z,848.00
2022-08-03T12:27:56.343Z,844.00
2022-08-03T12:28:56.228Z,836.00